Big Piney, WY weather

Big Piney-Marbleton Airport (AMOS), Big Piney, WY: 8/20/2014 07:53
Visibility10 statute milesclear sky
View 7-Day Forecast
Area Summary
Sky/CloudsSky Clear
Weather [last 24 hours]None
Pressure30.09 in.Hg (1019 hPa)
Dew Point43 F (6.1 C)
Relative Humidity 86 %
Temperature46.9 F (8.3 C)red thermometer
Reading TimeMinimum to Maximum Temperature
6-hr ending 8/20@05:5341 F to 54 F (5 C to 12.2 C)
6-hr ending 8/19@23:5346.9 F to 63 F (8.3 C to 17.2 C)
6-hr ending 8/19@17:5361 F to 70 F (16.1 C to 21.1 C)
6-hr ending 8/19@11:5342.1 F to 66 F (5.6 C to 18.9 C)
24-hr ending 8/20@00:5342.1 F to 70 F (5.6 C to 21.1 C)
Wind0 MPH (0 KT) green arrow pointing at 0 degrees
Wind FromNorth (000 Degrees)
Rolling 24-hr Peak Wind31.1 MPH (27 KT) on 8/19@15:46
Rolling 24-hr Peak Wind FromSouth/Southwest (200 Degrees)
Twilight Begins06:04Sunshine Yesterday
Sunrise06:33N/A
Sunset20:13
Twilight Ends20:43
METARKBPI 201353Z AUTO 00000KT 10SM CLR 08/06 A3009 RMK AO2 SLP118 T00830061
Tags: